Capitol Logistics 104


PANC
Ted Stevens Anchorage International Airport
Anchorage, Alaska, US
KSEA
Seattle-Tacoma International Airport
Seattle, Washington, US

Route Details

Aircraft Information
Primary: Boeing 747-400BCF
Backup: Boeing 777-200LRF
Route Data
Distance: 1257nm
Sched. Duration: 3h 29m
Avg. Duration: 2h 80m (-49m)
Times Flown: 16
Recm'd Route: NOEND4 NOEND LAIRE BKA DUGGS YYJ MARNR7
Planned Altitude: 33,000ft
Origin Wx: PANC 060753Z 16004KT 10SM FEW055 SCT120 SCT250 09/07 A2985 RMK AO2 SLP108 T00940067
Dest. Wx: KSEA 060805Z 19006KT 10SM BKN022 OVC038 12/08 A2977 RMK AO2 T01220083
Notes:

Financial History
Total Freight: 2,221,877lbs
Average Load: 138,867lbs/flt
Fuel Used: 802,007lbs
Avg. Fuel Used: 50,125lbs/flt
Fuel Expense: $997,579
Avg. Fuel Expense: $62,349
Avg. Fuel Cost: $1.24/lbs
Total Gross Income: $2,878,526
Pilot Pay: $3,164
Total Expenses: $311,713
Total Revenue: $1,558,527
Average Revenue: $179,907.91